This is the latest recevied weather packets stored in our database for station/object OK3MS-5. If no packets are shown the sender has not sent any weather packets the latest 10 day(s).
| Time | Temp. | Humidity | Pressure | Rain* | Wind** | Luminosity | Snow |
|---|---|---|---|---|---|---|---|
| 1788016508 | 23.89° C | 48% | 1013.5 hPa | 0 mm | - | 72 W/m² | - |
| 1788016207 | 23.33° C | 50% | 1013.6 hPa | 0 mm | - | 312 W/m² | - |
| 1788015906 | 23.33° C | 49% | 1013.7 hPa | 0 mm | - | 71 W/m² | - |
| 1788015606 | 25° C | 48% | 1013.4 hPa | 0 mm | - | 323 W/m² | - |
| 1788015305 | 25° C | 47% | 1013.3 hPa | 0 mm | - | 331 W/m² | - |
| 1788015010 | 24.44° C | 48% | 1013.5 hPa | 0 mm | - | 341 W/m² | - |
| 1788014704 | 24.44° C | 48% | 1013.6 hPa | 0 mm | - | 355 W/m² | - |
| 1788014404 | 25° C | 48% | 1013.4 hPa | 0 mm | - | 372 W/m² | - |
| 1788014106 | 25° C | 48% | 1013.4 hPa | 0 mm | - | 399 W/m² | - |
| 1788013804 | 25° C | 46% | 1013.5 hPa | 0 mm | - | 419 W/m² | - |
| 1788013503 | 24.44° C | 46% | 1013.5 hPa | 0 mm | - | 436 W/m² | - |
| 1788013204 | 24.44° C | 46% | 1013.7 hPa | 0 mm | - | 464 W/m² | - |
| 1788012903 | 24.44° C | 48% | 1013.6 hPa | 0 mm | - | 490 W/m² | - |
| 1788012604 | 24.44° C | 45% | 1013.5 hPa | 0 mm | - | 503 W/m² | - |
| 1788012306 | 24.44° C | 48% | 1013.6 hPa | 0 mm | - | 517 W/m² | - |
| 1788012004 | 25° C | 49% | 1013.5 hPa | 0 mm | - | 150 W/m² | - |
| 1788011704 | 25° C | 46% | 1013.5 hPa | 0 mm | - | 514 W/m² | - |
| 1788011402 | 25° C | 48% | 1013.6 hPa | 0 mm | - | 537 W/m² | - |
| 1788011102 | 24.44° C | 47% | 1013.8 hPa | 0 mm | - | 538 W/m² | - |
| 1788010804 | 23.89° C | 48% | 1013.8 hPa | 0 mm | - | 566 W/m² | - |
| 1788010504 | 23.89° C | 48% | 1014.1 hPa | 0 mm | - | 549 W/m² | - |
| 1788010206 | 24.44° C | 47% | 1013.9 hPa | 0 mm | - | 567 W/m² | - |
| 1788009905 | 23.89° C | 50% | 1014 hPa | 0 mm | - | 577 W/m² | - |
| 1788009603 | 23.89° C | 48% | 1014 hPa | 0 mm | - | 579 W/m² | - |
| 1788009304 | 24.44° C | 47% | 1014 hPa | 0 mm | - | 602 W/m² | - |
* Rain latest hour (hover to see other rain measurements)
** Current wind speed in m/s (hover to see current wind gust speed)